createdAt,value
2019-05-18T00:01:44.217Z,2.60
2019-05-18T00:04:13.040Z,2.10
2019-05-18T00:06:41.876Z,2.10
2019-05-18T00:09:10.721Z,2.40
2019-05-18T00:11:39.573Z,2.50
2019-05-18T00:14:08.423Z,2.60
2019-05-18T00:16:38.000Z,1.93
2019-05-18T00:19:06.842Z,2.23
2019-05-18T00:21:35.670Z,2.43
2019-05-18T00:24:04.495Z,2.90
2019-05-18T00:26:34.093Z,2.60
2019-05-18T00:29:03.762Z,2.90
2019-05-18T00:31:32.624Z,3.20
2019-05-18T00:34:01.470Z,3.10
2019-05-18T00:36:30.310Z,2.83
2019-05-18T00:38:59.169Z,2.73
2019-05-18T00:41:28.752Z,2.90
2019-05-18T00:43:57.591Z,2.90
2019-05-18T00:46:26.453Z,2.87
2019-05-18T00:48:55.264Z,2.80
2019-05-18T00:51:24.100Z,3.00
2019-05-18T00:53:52.949Z,2.67
2019-05-18T00:56:21.783Z,2.90
2019-05-18T00:58:50.626Z,2.60
2019-05-18T01:01:19.458Z,3.10
2019-05-18T01:03:48.323Z,2.70
2019-05-18T01:06:17.142Z,3.30
2019-05-18T01:08:45.972Z,3.30
2019-05-18T01:11:14.820Z,2.60
2019-05-18T01:13:43.650Z,2.93
2019-05-18T01:16:12.485Z,3.00
2019-05-18T01:18:41.317Z,3.30
2019-05-18T01:21:10.191Z,3.03
2019-05-18T01:23:39.780Z,3.00
2019-05-18T01:26:08.672Z,3.20
2019-05-18T01:28:37.473Z,3.10
2019-05-18T01:31:06.298Z,3.07
2019-05-18T01:33:35.143Z,3.17
2019-05-18T01:36:03.980Z,3.00
2019-05-18T01:38:32.818Z,3.67
2019-05-18T01:41:01.702Z,3.33
2019-05-18T01:43:31.313Z,3.77
2019-05-18T01:46:00.179Z,3.53
2019-05-18T01:48:29.601Z,3.50
2019-05-18T01:50:59.193Z,3.40
2019-05-18T01:53:28.052Z,3.70
2019-05-18T01:55:56.881Z,3.67
2019-05-18T01:58:26.553Z,4.00
2019-05-18T02:00:55.397Z,3.30
2019-05-18T02:03:25.968Z,3.60
2019-05-18T02:05:53.128Z,3.80
2019-05-18T02:08:21.961Z,4.15
2019-05-18T02:10:50.798Z,3.90
2019-05-18T02:13:19.642Z,4.00
2019-05-18T02:15:48.475Z,4.20
2019-05-18T02:18:28.854Z,3.97
2019-05-18T02:20:46.171Z,3.95
2019-05-18T02:23:14.988Z,3.93
2019-05-18T02:25:43.851Z,4.10
2019-05-18T02:28:12.723Z,3.67
2019-05-18T02:30:41.544Z,4.00
2019-05-18T02:33:11.119Z,3.50
2019-05-18T02:35:39.994Z,3.67
2019-05-18T02:38:14.419Z,3.67
2019-05-18T02:40:43.262Z,3.33
2019-05-18T02:43:12.837Z,4.13
2019-05-18T02:45:42.432Z,3.63
2019-05-18T02:48:11.270Z,3.77
2019-05-18T02:50:40.114Z,3.80
2019-05-18T02:53:08.940Z,3.63
2019-05-18T02:55:38.525Z,3.90
2019-05-18T02:58:19.873Z,3.90
2019-05-18T03:00:49.449Z,4.05
2019-05-18T03:03:18.265Z,3.73
2019-05-18T03:05:47.112Z,3.73
2019-05-18T03:08:16.697Z,4.13
2019-05-18T03:10:45.538Z,3.70
2019-05-18T03:13:14.383Z,4.53
2019-05-18T03:15:44.000Z,4.47
2019-05-18T03:18:13.572Z,4.40
2019-05-18T03:20:42.412Z,4.60
2019-05-18T03:23:11.253Z,3.90
2019-05-18T03:25:40.083Z,4.40
2019-05-18T03:28:08.917Z,4.77
2019-05-18T03:30:37.765Z,4.27
2019-05-18T03:33:06.586Z,4.40
2019-05-18T03:35:35.415Z,4.30
2019-05-18T03:38:05.009Z,4.27
2019-05-18T03:40:33.889Z,5.10
2019-05-18T03:43:02.718Z,5.03
2019-05-18T03:45:32.315Z,4.67
2019-05-18T03:48:01.740Z,4.53
2019-05-18T03:50:30.578Z,4.57
2019-05-18T03:52:59.439Z,5.00
2019-05-18T03:55:28.277Z,4.75
2019-05-18T03:57:57.850Z,3.97
2019-05-18T04:00:26.684Z,4.83
2019-05-18T04:02:56.263Z,4.50
2019-05-18T04:05:25.085Z,4.60
2019-05-18T04:07:53.942Z,4.40
2019-05-18T04:10:24.605Z,4.37
2019-05-18T04:12:53.430Z,4.57
2019-05-18T04:15:22.267Z,4.40
2019-05-18T04:17:51.878Z,4.20
2019-05-18T04:20:21.460Z,4.60
2019-05-18T04:22:50.319Z,4.50
2019-05-18T04:25:19.150Z,5.10
2019-05-18T04:27:48.012Z,4.30
2019-05-18T04:30:16.852Z,4.60
2019-05-18T04:32:45.755Z,4.00
2019-05-18T04:35:14.515Z,4.57
2019-05-18T04:37:43.353Z,5.17
2019-05-18T04:40:12.916Z,5.30
2019-05-18T04:42:41.771Z,5.20
2019-05-18T04:45:10.592Z,5.60
2019-05-18T04:47:40.180Z,4.67
2019-05-18T04:50:09.032Z,4.47
2019-05-18T04:52:37.879Z,4.67
2019-05-18T04:55:06.687Z,4.60
2019-05-18T04:57:35.533Z,4.83
2019-05-18T05:00:05.141Z,4.73
2019-05-18T05:02:33.999Z,4.23
2019-05-18T05:05:02.833Z,4.50
2019-05-18T05:07:32.620Z,4.33
2019-05-18T05:10:04.513Z,4.03
2019-05-18T05:12:29.822Z,4.75
2019-05-18T05:14:59.418Z,4.57
2019-05-18T05:17:29.071Z,4.50
2019-05-18T05:19:57.895Z,4.83
2019-05-18T05:22:26.741Z,4.93
2019-05-18T05:24:56.301Z,5.13
2019-05-18T05:27:25.142Z,5.43
2019-05-18T05:29:53.979Z,5.40
2019-05-18T05:32:22.823Z,4.83
2019-05-18T05:34:51.660Z,5.70
2019-05-18T05:37:20.523Z,4.70
2019-05-18T05:39:49.363Z,5.47
2019-05-18T05:42:18.215Z,5.50
2019-05-18T05:44:47.068Z,5.57
2019-05-18T05:47:15.890Z,5.63
2019-05-18T05:49:44.715Z,6.30
2019-05-18T05:52:13.553Z,6.17
2019-05-18T05:54:42.501Z,5.50
2019-05-18T05:57:11.285Z,5.57
2019-05-18T05:59:40.162Z,5.90
2019-05-18T06:02:09.740Z,6.80
2019-05-18T06:04:38.640Z,5.90
2019-05-18T06:07:07.485Z,5.30
2019-05-18T06:09:36.343Z,5.77
2019-05-18T06:12:05.926Z,5.40
2019-05-18T06:14:34.768Z,5.80
2019-05-18T06:17:09.578Z,6.10
2019-05-18T06:19:38.491Z,5.60
2019-05-18T06:22:07.331Z,5.47
2019-05-18T06:24:36.174Z,5.73
2019-05-18T06:27:05.020Z,6.43
2019-05-18T06:29:33.875Z,5.70
2019-05-18T06:32:02.705Z,7.07
2019-05-18T06:34:32.280Z,6.63
2019-05-18T06:37:01.128Z,5.73
2019-05-18T06:39:30.014Z,6.20
2019-05-18T06:41:58.849Z,7.40
2019-05-18T06:44:27.685Z,7.40
2019-05-18T06:46:56.543Z,6.70
2019-05-18T06:49:25.413Z,6.70
2019-05-18T06:51:54.256Z,7.43
2019-05-18T06:54:23.111Z,6.83
2019-05-18T06:56:51.957Z,6.93
2019-05-18T06:59:20.789Z,7.40
2019-05-18T07:01:49.663Z,7.20
2019-05-18T07:04:18.495Z,7.50
2019-05-18T07:06:47.374Z,7.23
2019-05-18T07:09:16.200Z,7.80
2019-05-18T07:11:45.047Z,6.70
2019-05-18T07:14:25.175Z,7.40
2019-05-18T07:16:43.451Z,7.90
2019-05-18T07:19:12.295Z,7.53
2019-05-18T07:21:41.141Z,7.63
2019-05-18T07:24:09.970Z,7.83
2019-05-18T07:26:38.813Z,7.30
2019-05-18T07:29:07.667Z,8.37
2019-05-18T07:31:36.523Z,7.87
2019-05-18T07:34:05.357Z,7.03
2019-05-18T07:36:34.212Z,8.83
2019-05-18T07:39:03.062Z,10.65
2019-05-18T07:41:45.911Z,9.23
2019-05-18T07:44:01.465Z,8.90
2019-05-18T07:46:30.399Z,10.33
2019-05-18T07:48:59.212Z,11.10
2019-05-18T07:51:36.649Z,10.30
2019-05-18T07:53:57.690Z,11.38
2019-05-18T07:56:26.556Z,9.80
2019-05-18T07:58:55.407Z,8.87
2019-05-18T08:01:24.267Z,9.20
2019-05-18T08:03:53.119Z,9.97
2019-05-18T08:06:21.971Z,9.33
2019-05-18T08:08:51.570Z,9.70
2019-05-18T08:11:21.151Z,13.17
2019-05-18T08:13:50.004Z,14.60
2019-05-18T08:16:18.841Z,13.40
2019-05-18T08:18:47.722Z,16.60
2019-05-18T08:21:16.517Z,20.57
2019-05-18T08:23:45.420Z,19.33
2019-05-18T08:26:14.201Z,21.33
2019-05-18T08:28:43.787Z,20.70
2019-05-18T08:31:12.657Z,21.95
2019-05-18T08:33:41.521Z,16.90
2019-05-18T08:36:10.362Z,13.63
2019-05-18T08:38:40.031Z,9.23
2019-05-18T08:41:08.786Z,7.77
2019-05-18T08:43:38.411Z,7.60
2019-05-18T08:46:07.953Z,7.00
2019-05-18T08:48:36.792Z,7.27
2019-05-18T08:51:06.386Z,12.97
2019-05-18T08:53:35.966Z,8.50
2019-05-18T08:56:04.818Z,7.90
2019-05-18T08:58:33.665Z,8.33
2019-05-18T09:01:02.527Z,7.13
2019-05-18T09:03:31.367Z,8.32
2019-05-18T09:06:00.251Z,7.80
2019-05-18T09:08:29.134Z,7.10
2019-05-18T09:10:57.918Z,7.37
2019-05-18T09:13:27.509Z,8.23
2019-05-18T09:15:56.372Z,8.15
2019-05-18T09:18:25.204Z,8.17
2019-05-18T09:20:54.057Z,7.60
2019-05-18T09:23:22.894Z,9.00
2019-05-18T09:25:53.321Z,7.80
2019-05-18T09:28:22.174Z,6.93
2019-05-18T09:30:51.010Z,6.07
2019-05-18T09:33:19.869Z,6.03
2019-05-18T09:35:48.710Z,8.70
2019-05-18T09:38:17.658Z,7.27
2019-05-18T09:40:46.439Z,8.07
2019-05-18T09:43:16.066Z,7.93
2019-05-18T09:45:44.879Z,7.87
2019-05-18T09:48:13.716Z,8.20
2019-05-18T09:50:42.582Z,7.73
2019-05-18T09:55:51.324Z,7.90
2019-05-18T09:58:20.143Z,7.70
2019-05-18T10:00:49.020Z,7.40
2019-05-18T10:03:17.868Z,7.23
2019-05-18T10:05:46.735Z,6.90
2019-05-18T10:08:15.596Z,6.50
2019-05-18T10:10:44.450Z,7.95
2019-05-18T10:13:13.305Z,7.77
2019-05-18T10:15:42.186Z,8.83
2019-05-18T10:18:11.001Z,8.77
2019-05-18T10:20:39.846Z,8.55
2019-05-18T10:23:12.829Z,7.65
2019-05-18T10:25:37.579Z,8.43
2019-05-18T10:28:06.388Z,8.90
2019-05-18T10:30:35.229Z,7.30
2019-05-18T10:33:04.120Z,9.02
2019-05-18T10:35:32.953Z,8.43
2019-05-18T10:38:01.822Z,8.73
2019-05-18T10:40:31.412Z,10.50
2019-05-18T10:43:00.276Z,8.48
2019-05-18T10:45:29.104Z,7.93
2019-05-18T10:47:58.743Z,7.47
2019-05-18T10:50:28.339Z,7.90
2019-05-18T10:52:57.204Z,7.80
2019-05-18T10:55:26.962Z,6.95
2019-05-18T10:57:55.650Z,9.43
2019-05-18T11:00:24.496Z,8.10
2019-05-18T11:02:54.065Z,8.90
2019-05-18T11:05:22.919Z,7.95
2019-05-18T11:07:51.780Z,8.80
2019-05-18T11:10:20.624Z,7.57
2019-05-18T11:12:49.487Z,6.57
2019-05-18T11:15:18.385Z,6.15
2019-05-18T11:17:47.199Z,6.50
2019-05-18T11:20:16.061Z,7.50
2019-05-18T11:22:44.898Z,7.20
2019-05-18T11:25:13.740Z,6.12
2019-05-18T11:27:42.575Z,8.13
2019-05-18T11:30:11.595Z,7.25
2019-05-18T11:32:41.076Z,6.87
2019-05-18T11:35:09.939Z,6.18
2019-05-18T11:37:38.767Z,8.27
2019-05-18T11:40:08.361Z,8.48
2019-05-18T11:42:37.194Z,12.70
2019-05-18T11:45:06.947Z,8.50
2019-05-18T11:47:35.781Z,8.27
2019-05-18T11:50:06.579Z,8.23
2019-05-18T11:52:35.432Z,7.45
2019-05-18T11:55:04.308Z,9.00
2019-05-18T11:57:33.862Z,7.95
2019-05-18T12:00:03.330Z,8.95
2019-05-18T12:02:32.182Z,7.47
2019-05-18T12:05:01.036Z,6.50
2019-05-18T12:07:29.878Z,7.00
2019-05-18T12:09:58.715Z,7.22
2019-05-18T12:12:27.596Z,7.62
2019-05-18T12:14:56.412Z,6.28
2019-05-18T12:17:25.261Z,6.57
2019-05-18T12:19:54.112Z,6.68
2019-05-18T12:22:22.162Z,6.78
2019-05-18T12:24:51.775Z,5.93
2019-05-18T12:27:20.623Z,5.57
2019-05-18T12:29:49.461Z,5.80
2019-05-18T12:32:18.310Z,5.87
2019-05-18T12:34:47.148Z,6.60
2019-05-18T12:37:20.991Z,7.18
2019-05-18T12:39:49.836Z,6.35
2019-05-18T12:42:18.675Z,5.70
2019-05-18T12:44:47.504Z,5.55
2019-05-18T12:47:17.116Z,6.12
2019-05-18T12:49:45.950Z,6.53
2019-05-18T12:52:14.798Z,5.82
2019-05-18T12:54:46.458Z,6.32
2019-05-18T12:57:13.262Z,5.75
2019-05-18T12:59:42.086Z,5.43
2019-05-18T13:02:10.941Z,5.72
2019-05-18T13:04:41.868Z,5.80
2019-05-18T13:07:08.656Z,5.15
2019-05-18T13:09:37.530Z,4.20
2019-05-18T13:12:07.114Z,4.25
2019-05-18T13:14:35.995Z,4.75
2019-05-18T13:17:04.818Z,4.62
2019-05-18T13:19:34.384Z,4.28
2019-05-18T13:22:03.254Z,4.00
2019-05-18T13:24:44.383Z,4.00
2019-05-18T13:27:00.938Z,3.30
2019-05-18T13:29:30.529Z,3.45
2019-05-18T13:31:59.364Z,3.53
2019-05-18T13:34:28.208Z,3.37
2019-05-18T13:36:57.069Z,3.60
2019-05-18T13:39:26.662Z,3.45
2019-05-18T13:41:55.498Z,2.97
2019-05-18T13:44:24.376Z,3.10
2019-05-18T13:46:53.221Z,2.50
2019-05-18T13:49:22.064Z,2.80
2019-05-18T13:51:50.904Z,2.62
2019-05-18T13:54:19.754Z,2.45
2019-05-18T13:56:48.618Z,2.45
2019-05-18T13:59:17.472Z,2.80
2019-05-18T14:01:47.065Z,3.90
2019-05-18T14:04:15.917Z,3.05
2019-05-18T14:06:44.768Z,2.80
2019-05-18T14:09:13.598Z,2.70
2019-05-18T14:11:42.458Z,2.55
2019-05-18T14:14:11.289Z,2.20
2019-05-18T14:16:40.105Z,2.70
2019-05-18T14:19:09.537Z,2.97
2019-05-18T14:21:38.383Z,2.58
2019-05-18T14:24:07.240Z,2.65
2019-05-18T14:26:36.095Z,2.65
2019-05-18T14:29:05.667Z,2.35
2019-05-18T14:31:34.521Z,2.30
2019-05-18T14:34:03.378Z,2.42
2019-05-18T14:36:33.004Z,2.30
2019-05-18T14:39:01.835Z,2.80
2019-05-18T14:41:30.676Z,3.10
2019-05-18T14:43:59.534Z,2.50
2019-05-18T14:46:28.384Z,2.47
2019-05-18T14:48:57.234Z,2.08
2019-05-18T14:51:26.818Z,2.00
2019-05-18T14:53:56.254Z,2.10
2019-05-18T14:56:25.108Z,2.25
2019-05-18T14:58:53.961Z,2.30
2019-05-18T15:01:22.804Z,2.20
2019-05-18T15:03:52.387Z,2.30
2019-05-18T15:06:21.238Z,2.22
2019-05-18T15:08:50.113Z,2.50
2019-05-18T15:11:18.930Z,1.77
2019-05-18T15:13:47.781Z,2.00
2019-05-18T15:16:17.382Z,2.00
2019-05-18T15:18:46.992Z,7.37
2019-05-18T15:21:16.585Z,2.60
2019-05-18T15:23:46.195Z,2.30
2019-05-18T15:26:15.836Z,1.30
2019-05-18T15:28:44.624Z,2.37
2019-05-18T15:31:13.474Z,1.20
2019-05-18T15:33:42.320Z,0.98
2019-05-18T15:36:11.175Z,1.10
2019-05-18T15:38:40.025Z,1.80
2019-05-18T15:41:08.877Z,6.32
2019-05-18T15:43:37.727Z,0.90
2019-05-18T15:46:07.387Z,1.00
2019-05-18T15:48:36.271Z,2.60
2019-05-18T15:51:05.048Z,1.15
2019-05-18T15:53:33.924Z,3.22
2019-05-18T15:56:06.163Z,0.85
2019-05-18T15:58:32.347Z,0.80
2019-05-18T16:01:01.184Z,0.88
2019-05-18T16:03:30.755Z,0.80
2019-05-18T16:05:59.628Z,0.80
2019-05-18T16:08:28.460Z,0.88
2019-05-18T16:10:57.368Z,1.05
2019-05-18T16:13:26.179Z,1.00
2019-05-18T16:18:24.877Z,0.80
2019-05-18T16:20:53.715Z,0.90
2019-05-18T16:23:22.565Z,0.90
2019-05-18T16:25:51.405Z,0.90
2019-05-18T16:28:20.249Z,0.80
2019-05-18T16:30:49.079Z,0.85
2019-05-18T16:33:18.028Z,0.90
2019-05-18T16:35:47.582Z,1.23
2019-05-18T16:38:16.413Z,1.20
2019-05-18T16:40:45.258Z,1.02
2019-05-18T16:43:14.117Z,1.00
2019-05-18T16:45:42.939Z,1.55
2019-05-18T16:48:12.571Z,1.10
2019-05-18T16:50:41.413Z,0.82
2019-05-18T16:53:10.209Z,1.20
2019-05-18T16:55:39.662Z,1.12
2019-05-18T16:58:08.514Z,1.00
2019-05-18T17:00:38.104Z,1.30
2019-05-18T17:03:06.990Z,1.30
2019-05-18T17:05:35.807Z,1.30
2019-05-18T17:08:05.382Z,1.20
2019-05-18T17:10:34.219Z,1.80
2019-05-18T17:13:03.076Z,1.23
2019-05-18T17:15:31.907Z,1.15
2019-05-18T17:18:00.810Z,1.33
2019-05-18T17:20:29.600Z,0.82
2019-05-18T17:22:58.444Z,1.05
2019-05-18T17:25:28.034Z,0.90
2019-05-18T17:27:56.892Z,1.08
2019-05-18T17:30:25.789Z,0.88
2019-05-18T17:32:55.327Z,0.95
2019-05-18T17:35:24.195Z,1.37
2019-05-18T17:37:53.036Z,1.00
2019-05-18T17:40:22.637Z,0.90
2019-05-18T17:42:51.572Z,0.90
2019-05-18T17:45:20.464Z,1.00
2019-05-18T17:47:49.296Z,1.23
2019-05-18T17:50:18.872Z,1.02
2019-05-18T17:52:47.723Z,0.95
2019-05-18T17:55:16.748Z,1.00
2019-05-18T17:57:45.436Z,1.00
2019-05-18T18:00:14.274Z,1.20
2019-05-18T18:02:43.870Z,1.20
2019-05-18T18:05:13.466Z,0.98
2019-05-18T18:07:42.888Z,0.80
2019-05-18T18:10:11.745Z,1.15
2019-05-18T18:12:40.575Z,1.08
2019-05-18T18:15:09.453Z,1.30
2019-05-18T18:17:38.299Z,1.50
2019-05-18T18:20:07.147Z,1.20
2019-05-18T18:22:35.984Z,2.20
2019-05-18T18:25:04.842Z,1.58
2019-05-18T18:27:33.710Z,1.80
2019-05-18T18:30:02.605Z,1.40
2019-05-18T18:32:31.432Z,1.40
2019-05-18T18:35:00.278Z,1.85
2019-05-18T18:37:29.148Z,1.50
2019-05-18T18:39:57.985Z,1.37
2019-05-18T18:42:26.849Z,1.35
2019-05-18T18:44:55.713Z,1.42
2019-05-18T18:47:24.532Z,1.50
2019-05-18T18:49:53.380Z,1.40
2019-05-18T18:52:22.210Z,1.75
2019-05-18T18:54:51.061Z,1.42
2019-05-18T18:57:20.504Z,1.35
2019-05-18T18:59:49.333Z,1.80
2019-05-18T19:02:18.177Z,1.40
2019-05-18T19:04:47.934Z,1.10
2019-05-18T19:07:16.630Z,1.67
2019-05-18T19:09:46.087Z,2.17
2019-05-18T19:12:14.914Z,2.20
2019-05-18T19:14:43.770Z,2.03
2019-05-18T19:17:12.593Z,2.70
2019-05-18T19:19:41.420Z,2.00
2019-05-18T19:22:10.303Z,2.47
2019-05-18T19:24:39.093Z,2.30
2019-05-18T19:27:07.976Z,2.45
2019-05-18T19:29:36.800Z,1.57
2019-05-18T19:32:05.692Z,1.77
2019-05-18T19:34:34.536Z,1.70
2019-05-18T19:37:04.182Z,2.87
2019-05-18T19:39:33.757Z,2.05
2019-05-18T19:42:02.616Z,2.10
2019-05-18T19:44:31.467Z,1.50
2019-05-18T19:47:00.308Z,1.70
2019-05-18T19:49:29.206Z,1.83
2019-05-18T19:51:58.070Z,1.90
2019-05-18T19:54:26.907Z,1.63
2019-05-18T19:56:55.785Z,1.40
2019-05-18T19:59:25.360Z,1.80
2019-05-18T20:01:54.216Z,2.15
2019-05-18T20:04:23.080Z,1.42
2019-05-18T20:06:51.956Z,1.90
2019-05-18T20:09:21.555Z,2.03
2019-05-18T20:11:51.006Z,2.85
2019-05-18T20:14:19.838Z,2.30
2019-05-18T20:16:48.784Z,1.80
2019-05-18T20:19:17.566Z,2.25
2019-05-18T20:21:46.436Z,2.28
2019-05-18T20:24:15.313Z,2.08
2019-05-18T20:26:44.737Z,2.28
2019-05-18T20:29:13.614Z,2.20
2019-05-18T20:31:42.429Z,1.93
2019-05-18T20:34:11.290Z,1.93
2019-05-18T20:36:40.917Z,2.10
2019-05-18T20:39:09.726Z,2.20
2019-05-18T20:41:38.573Z,2.60
2019-05-18T20:44:07.426Z,2.20
2019-05-18T20:46:36.263Z,1.93
2019-05-18T20:49:05.160Z,1.97
2019-05-18T20:51:34.018Z,2.73
2019-05-18T20:54:02.881Z,2.77
2019-05-18T20:56:31.700Z,2.33
2019-05-18T20:59:01.351Z,2.60
2019-05-18T21:01:30.892Z,3.12
2019-05-18T21:03:59.726Z,2.53
2019-05-18T21:06:28.561Z,2.43
2019-05-18T21:08:57.522Z,2.10
2019-05-18T21:11:26.299Z,2.53
2019-05-18T21:13:57.633Z,2.40
2019-05-18T21:16:24.022Z,2.30
2019-05-18T21:18:52.893Z,2.90
2019-05-18T21:21:25.604Z,2.83
2019-05-18T21:23:50.633Z,2.23
2019-05-18T21:26:19.489Z,2.10
2019-05-18T21:28:56.389Z,2.60
2019-05-18T21:31:17.799Z,2.75
2019-05-18T21:33:47.377Z,2.17
2019-05-18T21:36:16.303Z,2.20
2019-05-18T21:38:45.892Z,2.80
2019-05-18T21:41:14.749Z,2.67
2019-05-18T21:43:43.597Z,2.70
2019-05-18T21:46:13.173Z,2.22
2019-05-18T21:48:42.015Z,2.40
2019-05-18T21:51:10.844Z,2.53
2019-05-18T21:53:39.685Z,2.50
2019-05-18T21:56:08.523Z,2.30
2019-05-18T21:58:37.336Z,2.60
2019-05-18T22:01:06.931Z,3.00
2019-05-18T22:03:35.771Z,2.70
2019-05-18T22:06:04.620Z,2.57
2019-05-18T22:08:33.450Z,2.97
2019-05-18T22:11:02.299Z,3.58
2019-05-18T22:13:31.914Z,2.70
2019-05-18T22:16:00.784Z,3.42
2019-05-18T22:18:29.602Z,2.80
2019-05-18T22:20:58.448Z,3.30
2019-05-18T22:23:27.304Z,3.07
2019-05-18T22:25:57.100Z,3.73
2019-05-18T22:28:25.738Z,3.20
2019-05-18T22:30:54.634Z,4.40
2019-05-18T22:33:23.440Z,3.97
2019-05-18T22:35:53.059Z,3.50
2019-05-18T22:38:21.877Z,4.17
2019-05-18T22:40:50.710Z,3.90
2019-05-18T22:43:19.562Z,3.87
2019-05-18T22:45:48.604Z,4.30
2019-05-18T22:48:17.251Z,4.57
2019-05-18T22:50:46.075Z,4.40
2019-05-18T22:53:15.652Z,4.30
2019-05-18T22:55:44.496Z,5.62
2019-05-18T22:58:13.328Z,4.43
2019-05-18T23:00:42.177Z,4.50
2019-05-18T23:03:11.000Z,5.62
2019-05-18T23:05:39.855Z,4.60
2019-05-18T23:08:08.695Z,5.13
2019-05-18T23:10:38.131Z,5.33
2019-05-18T23:13:07.707Z,4.50
2019-05-18T23:15:36.552Z,4.47
2019-05-18T23:18:05.401Z,4.20
2019-05-18T23:20:35.016Z,4.70
2019-05-18T23:23:03.814Z,4.03
2019-05-18T23:25:32.641Z,3.80
2019-05-18T23:28:01.467Z,4.37
2019-05-18T23:30:30.313Z,4.30
2019-05-18T23:32:59.153Z,3.80
2019-05-18T23:35:28.740Z,4.53
2019-05-18T23:37:57.565Z,4.23
2019-05-18T23:40:26.407Z,4.33
2019-05-18T23:42:55.266Z,4.90
2019-05-18T23:45:24.098Z,5.47
2019-05-18T23:47:52.927Z,3.83
2019-05-18T23:50:21.767Z,4.00
2019-05-18T23:52:50.742Z,4.00
2019-05-18T23:55:19.454Z,3.80
2019-05-18T23:57:48.305Z,3.97
